createdAt,value
2022-10-19T00:01:17.938Z,0.47
2022-10-19T00:04:02.504Z,0.50
2022-10-19T00:06:47.600Z,0.47
2022-10-19T00:09:31.499Z,0.35
2022-10-19T00:12:14.051Z,0.40
2022-10-19T00:14:56.823Z,0.40
2022-10-19T00:17:39.891Z,0.82
2022-10-19T00:20:22.621Z,0.50
2022-10-19T00:23:05.227Z,0.50
2022-10-19T00:25:57.018Z,0.43
2022-10-19T00:28:39.656Z,0.70
2022-10-19T00:31:22.501Z,0.40
2022-10-19T00:34:05.134Z,0.40
2022-10-19T00:36:47.745Z,0.47
2022-10-19T00:39:30.325Z,0.47
2022-10-19T00:42:14.526Z,0.32
2022-10-19T00:45:01.654Z,0.60
2022-10-19T00:47:44.589Z,0.50
2022-10-19T00:50:27.203Z,0.47
2022-10-19T00:53:09.844Z,0.50
2022-10-19T00:55:52.796Z,0.50
2022-10-19T00:58:36.960Z,0.47
2022-10-19T01:01:21.359Z,0.63
2022-10-19T01:04:04.747Z,0.47
2022-10-19T01:06:47.447Z,0.55
2022-10-19T01:09:30.087Z,0.50
2022-10-19T01:12:19.170Z,0.50
2022-10-19T01:15:09.957Z,0.52
2022-10-19T01:17:56.749Z,0.50
2022-10-19T01:21:06.651Z,0.90
2022-10-19T01:23:59.695Z,0.50
2022-10-19T01:26:51.715Z,0.47
2022-10-19T01:29:44.253Z,0.43
2022-10-19T01:32:33.037Z,0.50
2022-10-19T01:35:22.801Z,0.40
2022-10-19T01:38:08.604Z,0.40
2022-10-19T01:40:55.339Z,0.50
2022-10-19T01:43:42.660Z,0.40
2022-10-19T01:46:28.409Z,0.38
2022-10-19T01:49:14.808Z,0.82
2022-10-19T01:51:59.689Z,0.40
2022-10-19T01:54:45.062Z,0.63
2022-10-19T01:57:29.201Z,0.47
2022-10-19T02:00:14.374Z,0.40
2022-10-19T02:02:59.850Z,0.57
2022-10-19T02:05:44.693Z,0.60
2022-10-19T02:08:28.754Z,0.40
2022-10-19T02:11:11.371Z,0.50
2022-10-19T02:13:55.732Z,0.30
2022-10-19T02:16:41.193Z,0.50
2022-10-19T02:22:13.674Z,0.40
2022-10-19T02:24:56.391Z,0.45
2022-10-19T02:27:41.846Z,0.40
2022-10-19T02:30:24.554Z,0.45
2022-10-19T02:33:07.893Z,0.43
2022-10-19T02:35:50.671Z,0.68
2022-10-19T02:38:34.869Z,0.68
2022-10-19T02:41:19.235Z,0.50
2022-10-19T02:44:03.506Z,0.68
2022-10-19T02:46:47.147Z,0.50
2022-10-19T02:49:30.597Z,0.57
2022-10-19T02:52:14.062Z,0.40
2022-10-19T02:54:58.030Z,0.50
2022-10-19T02:57:40.626Z,0.57
2022-10-19T03:00:23.208Z,0.55
2022-10-19T03:03:07.294Z,0.65
2022-10-19T03:05:49.839Z,0.70
2022-10-19T03:08:32.444Z,0.60
2022-10-19T03:11:16.443Z,0.40
2022-10-19T03:13:59.065Z,0.50
2022-10-19T03:16:41.698Z,0.45
2022-10-19T03:19:24.324Z,0.75
2022-10-19T03:22:07.239Z,0.30
2022-10-19T03:24:49.835Z,0.50
2022-10-19T03:27:34.213Z,0.47
2022-10-19T03:30:16.991Z,0.40
2022-10-19T03:32:59.564Z,0.60
2022-10-19T03:35:42.107Z,0.70
2022-10-19T03:38:24.707Z,0.50
2022-10-19T03:41:07.473Z,0.50
2022-10-19T03:43:51.582Z,0.35
2022-10-19T03:46:34.203Z,0.40
2022-10-19T03:49:16.995Z,0.47
2022-10-19T03:51:59.547Z,0.50
2022-10-19T03:54:42.325Z,0.60
2022-10-19T03:57:24.930Z,0.60
2022-10-19T04:00:10.326Z,0.52
2022-10-19T04:02:55.578Z,0.60
2022-10-19T04:05:38.195Z,0.50
2022-10-19T04:08:20.836Z,0.60
2022-10-19T04:11:04.034Z,0.60
2022-10-19T04:13:49.017Z,0.50
2022-10-19T04:16:33.171Z,0.77
2022-10-19T04:19:16.699Z,0.57
2022-10-19T04:21:59.299Z,0.40
2022-10-19T04:24:42.222Z,0.45
2022-10-19T04:27:24.848Z,0.80
2022-10-19T04:30:08.261Z,0.38
2022-10-19T04:32:52.216Z,0.55
2022-10-19T04:35:35.091Z,0.57
2022-10-19T04:38:17.770Z,0.50
2022-10-19T04:41:02.398Z,0.47
2022-10-19T04:43:45.419Z,0.50
2022-10-19T04:46:28.772Z,0.50
2022-10-19T04:49:16.369Z,0.70
2022-10-19T04:52:02.231Z,0.43
2022-10-19T04:54:44.873Z,0.30
2022-10-19T04:57:27.597Z,0.60
2022-10-19T05:00:10.853Z,0.60
2022-10-19T05:02:53.840Z,0.98
2022-10-19T05:05:37.802Z,0.57
2022-10-19T05:08:20.401Z,0.50
2022-10-19T05:11:03.533Z,0.60
2022-10-19T05:13:46.655Z,0.50
2022-10-19T05:16:29.289Z,0.60
2022-10-19T05:19:13.715Z,0.70
2022-10-19T05:21:57.646Z,0.57
2022-10-19T05:24:40.295Z,0.60
2022-10-19T05:27:23.182Z,0.77
2022-10-19T05:30:06.800Z,0.88
2022-10-19T05:32:49.718Z,0.60
2022-10-19T05:35:32.387Z,0.75
2022-10-19T05:38:16.333Z,1.00
2022-10-19T05:40:58.962Z,0.75
2022-10-19T05:43:41.642Z,0.90
2022-10-19T05:46:24.983Z,0.70
2022-10-19T05:49:07.548Z,0.88
2022-10-19T05:51:50.472Z,0.95
2022-10-19T05:54:36.032Z,0.60
2022-10-19T05:57:18.749Z,0.70
2022-10-19T06:00:01.368Z,1.05
2022-10-19T06:02:58.986Z,0.75
2022-10-19T06:05:41.919Z,0.50
2022-10-19T06:08:25.072Z,0.60
2022-10-19T06:11:10.234Z,0.75
2022-10-19T06:13:54.732Z,0.98
2022-10-19T06:16:37.810Z,1.00
2022-10-19T06:19:20.423Z,0.85
2022-10-19T06:22:03.055Z,0.57
2022-10-19T06:24:45.646Z,0.95
2022-10-19T06:27:30.621Z,0.70
2022-10-19T06:30:13.721Z,0.75
2022-10-19T06:32:56.590Z,0.80
2022-10-19T06:35:42.266Z,0.60
2022-10-19T06:38:24.951Z,0.80
2022-10-19T06:41:07.799Z,0.50
2022-10-19T06:43:52.358Z,0.55
2022-10-19T06:46:35.165Z,0.77
2022-10-19T06:49:17.868Z,0.90
2022-10-19T06:52:00.732Z,0.80
2022-10-19T06:54:43.329Z,1.08
2022-10-19T06:57:26.059Z,0.63
2022-10-19T07:00:10.986Z,0.93
2022-10-19T07:02:53.820Z,0.73
2022-10-19T07:05:36.541Z,0.93
2022-10-19T07:08:19.256Z,0.95
2022-10-19T07:11:02.995Z,0.77
2022-10-19T07:13:45.713Z,0.82
2022-10-19T07:16:29.826Z,0.70
2022-10-19T07:19:13.460Z,1.20
2022-10-19T07:21:56.277Z,1.00
2022-10-19T07:24:39.117Z,0.90
2022-10-19T07:27:21.924Z,0.93
2022-10-19T07:30:04.851Z,1.08
2022-10-19T07:32:48.973Z,1.00
2022-10-19T07:35:31.717Z,1.02
2022-10-19T07:38:14.514Z,0.80
2022-10-19T07:41:04.402Z,0.80
2022-10-19T07:43:47.856Z,0.95
2022-10-19T07:46:33.463Z,0.93
2022-10-19T07:49:19.204Z,0.60
2022-10-19T07:52:01.814Z,0.80
2022-10-19T07:54:44.854Z,0.77
2022-10-19T07:57:27.570Z,0.60
2022-10-19T08:00:11.153Z,0.98
2022-10-19T08:03:04.978Z,0.70
2022-10-19T08:06:02.176Z,0.60
2022-10-19T08:08:46.180Z,0.57
2022-10-19T08:11:30.010Z,0.88
2022-10-19T08:14:12.806Z,0.75
2022-10-19T08:16:55.551Z,0.57
2022-10-19T08:19:41.413Z,0.80
2022-10-19T08:22:25.425Z,0.70
2022-10-19T08:25:09.479Z,0.68
2022-10-19T08:27:52.653Z,0.63
2022-10-19T08:30:35.891Z,0.57
2022-10-19T08:33:18.595Z,0.70
2022-10-19T08:36:01.246Z,0.80
2022-10-19T08:38:48.439Z,0.90
2022-10-19T08:41:34.421Z,0.80
2022-10-19T08:44:32.329Z,0.80
2022-10-19T08:47:23.548Z,0.80
2022-10-19T08:50:15.950Z,1.00
2022-10-19T08:53:01.668Z,1.10
2022-10-19T08:56:03.612Z,0.85
2022-10-19T08:58:57.938Z,0.90
2022-10-19T09:01:43.026Z,1.30
2022-10-19T09:04:27.130Z,0.70
2022-10-19T09:07:21.755Z,0.85
2022-10-19T09:10:10.414Z,1.00
2022-10-19T09:12:58.725Z,0.60
2022-10-19T09:15:42.667Z,1.02
2022-10-19T09:18:27.840Z,1.10
2022-10-19T09:21:13.006Z,0.90
2022-10-19T09:23:59.734Z,0.70
2022-10-19T09:26:48.321Z,1.02
2022-10-19T09:29:37.060Z,0.80
2022-10-19T09:32:21.619Z,0.70
2022-10-19T09:35:06.450Z,0.90
2022-10-19T09:37:50.334Z,0.90
2022-10-19T09:40:33.247Z,0.80
2022-10-19T09:43:22.097Z,0.68
2022-10-19T09:46:18.740Z,1.10
2022-10-19T09:49:04.541Z,0.70
2022-10-19T09:51:50.646Z,1.05
2022-10-19T09:54:35.866Z,0.85
2022-10-19T09:57:21.471Z,0.70
2022-10-19T10:00:04.478Z,1.08
2022-10-19T10:02:52.102Z,1.02
2022-10-19T10:05:36.170Z,0.60
2022-10-19T10:08:20.848Z,0.50
2022-10-19T10:11:09.093Z,0.70
2022-10-19T10:13:53.825Z,0.60
2022-10-19T10:16:37.054Z,0.85
2022-10-19T10:22:25.722Z,0.50
2022-10-19T10:25:13.045Z,0.80
2022-10-19T10:27:57.470Z,0.80
2022-10-19T10:30:40.180Z,0.77
2022-10-19T10:33:43.741Z,0.73
2022-10-19T10:36:29.565Z,0.80
2022-10-19T10:39:15.562Z,0.82
2022-10-19T10:42:01.221Z,0.70
2022-10-19T10:44:46.256Z,0.77
2022-10-19T10:47:29.481Z,0.50
2022-10-19T10:50:17.372Z,0.70
2022-10-19T10:53:02.133Z,0.50
2022-10-19T10:55:56.218Z,0.70
2022-10-19T10:58:43.444Z,0.50
2022-10-19T11:01:29.515Z,0.80
2022-10-19T11:04:15.231Z,0.70
2022-10-19T11:07:00.362Z,0.63
2022-10-19T11:09:45.652Z,0.70
2022-10-19T11:12:35.176Z,0.80
2022-10-19T11:15:21.503Z,0.45
2022-10-19T11:18:11.751Z,0.68
2022-10-19T11:20:58.502Z,0.63
2022-10-19T11:23:58.862Z,0.55
2022-10-19T11:26:53.390Z,0.30
2022-10-19T11:29:43.034Z,0.60
2022-10-19T11:32:31.553Z,0.60
2022-10-19T11:35:18.951Z,0.45
2022-10-19T11:38:19.577Z,0.82
2022-10-19T11:41:23.868Z,0.40
2022-10-19T11:44:17.211Z,0.63
2022-10-19T11:47:08.651Z,0.50
2022-10-19T11:49:56.706Z,0.73
2022-10-19T11:52:46.454Z,0.40
2022-10-19T11:55:33.613Z,0.40
2022-10-19T11:58:34.586Z,0.45
2022-10-19T12:01:23.881Z,0.40
2022-10-19T12:04:21.477Z,0.70
2022-10-19T12:07:10.409Z,0.70
2022-10-19T12:09:56.498Z,0.50
2022-10-19T12:12:40.688Z,0.28
2022-10-19T12:15:26.247Z,0.30
2022-10-19T12:18:13.758Z,0.57
2022-10-19T12:20:58.726Z,0.47
2022-10-19T12:23:44.924Z,0.50
2022-10-19T12:26:30.630Z,0.43
2022-10-19T12:29:15.474Z,0.40
2022-10-19T12:31:59.206Z,0.57
2022-10-19T12:34:45.818Z,0.40
2022-10-19T12:37:32.560Z,0.30
2022-10-19T12:40:21.068Z,0.60
2022-10-19T12:43:08.102Z,0.50
2022-10-19T12:45:55.909Z,0.50
2022-10-19T12:48:39.288Z,0.60
2022-10-19T12:51:23.297Z,0.40
2022-10-19T12:54:09.483Z,0.25
2022-10-19T12:56:53.509Z,0.47
2022-10-19T12:59:36.838Z,0.40
2022-10-19T13:02:25.751Z,0.30
2022-10-19T13:05:08.509Z,0.50
2022-10-19T13:07:53.001Z,0.32
2022-10-19T13:10:35.939Z,0.40
2022-10-19T13:13:38.091Z,0.60
2022-10-19T13:16:44.689Z,0.32
2022-10-19T13:19:27.417Z,0.30
2022-10-19T13:22:25.312Z,0.35
2022-10-19T13:25:23.660Z,0.40
2022-10-19T13:28:21.173Z,0.40
2022-10-19T13:31:09.420Z,0.40
2022-10-19T13:33:55.213Z,0.40
2022-10-19T13:36:40.254Z,0.38
2022-10-19T13:39:23.321Z,0.30
2022-10-19T13:42:06.041Z,0.40
2022-10-19T13:44:49.894Z,0.40
2022-10-19T13:50:27.970Z,0.38
2022-10-19T13:53:25.598Z,0.50
2022-10-19T13:56:29.192Z,0.30
2022-10-19T13:59:27.965Z,0.17
2022-10-19T14:02:29.522Z,0.30
2022-10-19T14:05:24.161Z,0.40
2022-10-19T14:08:11.341Z,0.20
2022-10-19T14:11:01.400Z,0.15
2022-10-19T14:13:44.790Z,0.30
2022-10-19T14:16:27.446Z,0.20
2022-10-19T14:19:13.643Z,0.10
2022-10-19T14:21:59.196Z,0.20
2022-10-19T14:24:41.808Z,0.30
2022-10-19T14:27:25.135Z,0.10
2022-10-19T14:30:08.506Z,0.10
2022-10-19T14:32:51.388Z,0.17
2022-10-19T14:35:35.243Z,0.30
2022-10-19T14:38:21.106Z,0.20
2022-10-19T14:41:04.748Z,0.10
2022-10-19T14:43:47.607Z,0.20
2022-10-19T14:46:31.086Z,0.17
2022-10-19T14:49:13.811Z,0.20
2022-10-19T14:51:58.513Z,0.20
2022-10-19T14:54:43.775Z,0.28
2022-10-19T14:57:27.522Z,0.30
2022-10-19T15:00:17.125Z,0.20
2022-10-19T15:03:01.847Z,0.30
2022-10-19T15:05:48.479Z,0.30
2022-10-19T15:08:33.936Z,0.30
2022-10-19T15:11:25.471Z,0.20
2022-10-19T15:14:10.097Z,0.20
2022-10-19T15:16:54.052Z,0.40
2022-10-19T15:19:41.454Z,0.30
2022-10-19T15:22:26.601Z,0.30
2022-10-19T15:25:26.564Z,0.20
2022-10-19T15:28:33.904Z,0.20
2022-10-19T15:31:20.111Z,0.30
2022-10-19T15:34:03.486Z,0.20
2022-10-19T15:36:55.602Z,0.20
2022-10-19T15:39:41.145Z,0.20
2022-10-19T15:42:33.307Z,0.20
2022-10-19T15:45:31.323Z,0.30
2022-10-19T15:48:18.503Z,0.35
2022-10-19T15:51:01.108Z,0.13
2022-10-19T15:53:43.903Z,0.20
2022-10-19T15:56:27.465Z,0.30
2022-10-19T15:59:15.373Z,0.30
2022-10-19T16:01:59.893Z,0.30
2022-10-19T16:04:42.516Z,0.30
2022-10-19T16:07:26.885Z,0.35
2022-10-19T16:10:15.411Z,0.30
2022-10-19T16:12:58.053Z,0.25
2022-10-19T16:15:40.664Z,0.50
2022-10-19T16:18:24.665Z,0.50
2022-10-19T16:21:07.696Z,0.38
2022-10-19T16:23:50.342Z,0.43
2022-10-19T16:26:33.158Z,0.50
2022-10-19T16:29:15.883Z,0.50
2022-10-19T16:31:58.611Z,0.63
2022-10-19T16:34:42.587Z,0.60
2022-10-19T16:37:25.303Z,0.70
2022-10-19T16:40:08.681Z,0.60
2022-10-19T16:42:51.838Z,0.80
2022-10-19T16:45:35.482Z,0.65
2022-10-19T16:48:20.817Z,0.98
2022-10-19T16:51:19.849Z,1.02
2022-10-19T16:54:02.940Z,1.00
2022-10-19T16:56:46.398Z,1.20
2022-10-19T16:59:29.242Z,1.42
2022-10-19T17:02:12.164Z,1.42
2022-10-19T17:04:54.852Z,1.40
2022-10-19T17:07:38.833Z,1.30
2022-10-19T17:10:21.503Z,0.90
2022-10-19T17:13:04.123Z,1.00
2022-10-19T17:15:46.815Z,0.80
2022-10-19T17:18:29.546Z,0.70
2022-10-19T17:21:13.554Z,0.82
2022-10-19T17:23:58.663Z,0.70
2022-10-19T17:26:42.815Z,0.70
2022-10-19T17:29:25.543Z,0.70
2022-10-19T17:32:08.256Z,1.08
2022-10-19T17:34:51.013Z,1.00
2022-10-19T17:37:33.934Z,1.92
2022-10-19T17:40:18.135Z,1.30
2022-10-19T17:43:00.830Z,1.23
2022-10-19T17:48:31.045Z,1.38
2022-10-19T17:51:15.819Z,1.40
2022-10-19T17:53:59.705Z,1.88
2022-10-19T17:56:45.291Z,2.75
2022-10-19T17:59:34.817Z,2.50
2022-10-19T18:02:23.353Z,3.40
2022-10-19T18:05:06.211Z,3.25
2022-10-19T18:07:49.442Z,3.65
2022-10-19T18:10:32.334Z,3.35
2022-10-19T18:13:16.377Z,2.70
2022-10-19T18:16:02.989Z,3.10
2022-10-19T18:18:48.623Z,2.58
2022-10-19T18:21:32.137Z,2.80
2022-10-19T18:24:19.753Z,2.53
2022-10-19T18:27:02.449Z,2.30
2022-10-19T18:29:46.612Z,2.03
2022-10-19T18:32:29.221Z,2.10
2022-10-19T18:35:11.949Z,1.90
2022-10-19T18:37:54.593Z,1.58
2022-10-19T18:40:37.858Z,3.20
2022-10-19T18:43:20.963Z,4.18
2022-10-19T18:46:05.098Z,3.35
2022-10-19T18:48:48.155Z,3.45
2022-10-19T18:51:31.893Z,3.10
2022-10-19T18:54:14.600Z,2.50
2022-10-19T18:56:57.814Z,2.47
2022-10-19T18:59:40.983Z,1.80
2022-10-19T19:02:35.243Z,2.00
2022-10-19T19:05:25.945Z,2.78
2022-10-19T19:08:09.183Z,2.05
2022-10-19T19:10:52.926Z,2.25
2022-10-19T19:13:36.114Z,1.40
2022-10-19T19:16:19.870Z,1.40
2022-10-19T19:19:04.354Z,1.60
2022-10-19T19:21:49.195Z,1.70
2022-10-19T19:24:32.928Z,2.08
2022-10-19T19:27:15.702Z,2.33
2022-10-19T19:30:00.604Z,2.38
2022-10-19T19:32:43.330Z,2.90
2022-10-19T19:35:27.381Z,3.08
2022-10-19T19:38:10.317Z,2.30
2022-10-19T19:40:53.137Z,1.58
2022-10-19T19:43:37.550Z,1.65
2022-10-19T19:46:20.897Z,2.03
2022-10-19T19:49:05.126Z,2.60
2022-10-19T19:51:49.683Z,2.60
2022-10-19T19:54:32.473Z,2.25
2022-10-19T19:57:15.102Z,3.75
2022-10-19T19:59:57.847Z,3.17
2022-10-19T20:02:40.506Z,4.32
2022-10-19T20:05:23.975Z,4.80
2022-10-19T20:08:08.322Z,2.70
2022-10-19T20:10:51.175Z,2.47
2022-10-19T20:13:33.997Z,2.88
2022-10-19T20:16:18.553Z,2.72
2022-10-19T20:19:02.866Z,2.45
2022-10-19T20:21:45.609Z,3.60
2022-10-19T20:24:31.089Z,2.70
2022-10-19T20:27:15.714Z,2.28
2022-10-19T20:29:58.839Z,1.70
2022-10-19T20:32:41.516Z,1.85
2022-10-19T20:35:24.240Z,1.92
2022-10-19T20:38:07.042Z,1.80
2022-10-19T20:40:51.023Z,2.22
2022-10-19T20:43:34.390Z,1.45
2022-10-19T20:46:18.749Z,1.23
2022-10-19T20:49:02.530Z,1.20
2022-10-19T20:51:45.177Z,0.95
2022-10-19T20:54:27.921Z,0.75
2022-10-19T20:57:12.057Z,0.88
2022-10-19T20:59:55.108Z,1.00
2022-10-19T21:02:37.895Z,1.00
2022-10-19T21:05:20.797Z,0.90
2022-10-19T21:08:03.789Z,1.02
2022-10-19T21:10:46.736Z,1.10
2022-10-19T21:13:30.873Z,0.80
2022-10-19T21:16:14.521Z,1.10
2022-10-19T21:18:57.833Z,1.17
2022-10-19T21:21:41.421Z,1.02
2022-10-19T21:24:25.001Z,1.20
2022-10-19T21:27:09.207Z,1.10
2022-10-19T21:29:53.479Z,1.23
2022-10-19T21:32:36.091Z,1.00
2022-10-19T21:35:18.726Z,0.80
2022-10-19T21:38:01.398Z,0.98
2022-10-19T21:40:44.052Z,0.93
2022-10-19T21:43:26.821Z,0.95
2022-10-19T21:46:13.015Z,0.70
2022-10-19T21:48:56.067Z,0.82
2022-10-19T21:51:40.290Z,0.88
2022-10-19T21:54:24.563Z,0.90
2022-10-19T21:57:07.268Z,0.80
2022-10-19T21:59:49.912Z,0.82
2022-10-19T22:02:33.990Z,0.80
2022-10-19T22:05:16.599Z,0.82
2022-10-19T22:07:59.191Z,0.75
2022-10-19T22:10:43.579Z,0.60
2022-10-19T22:13:26.791Z,0.90
2022-10-19T22:16:10.279Z,0.80
2022-10-19T22:18:54.699Z,0.70
2022-10-19T22:24:20.917Z,0.80
2022-10-19T22:27:03.555Z,0.70
2022-10-19T22:29:46.304Z,0.90
2022-10-19T22:32:29.046Z,0.73
2022-10-19T22:35:13.083Z,0.82
2022-10-19T22:37:55.835Z,0.90
2022-10-19T22:40:38.580Z,0.98
2022-10-19T22:43:21.212Z,1.50
2022-10-19T22:46:03.958Z,1.00
2022-10-19T22:48:46.626Z,0.80
2022-10-19T22:51:30.690Z,0.98
2022-10-19T22:54:13.559Z,1.13
2022-10-19T22:56:56.227Z,0.88
2022-10-19T22:59:38.911Z,0.90
2022-10-19T23:02:21.625Z,1.00
2022-10-19T23:05:04.315Z,0.90
2022-10-19T23:07:48.356Z,0.85
2022-10-19T23:10:32.638Z,0.70
2022-10-19T23:13:15.328Z,0.90
2022-10-19T23:15:57.948Z,1.05
2022-10-19T23:18:41.635Z,0.73
2022-10-19T23:21:24.200Z,0.88
2022-10-19T23:24:08.276Z,0.70
2022-10-19T23:26:50.970Z,0.70
2022-10-19T23:29:33.680Z,0.60
2022-10-19T23:32:16.342Z,0.88
2022-10-19T23:34:58.978Z,0.85
2022-10-19T23:37:41.609Z,0.88
2022-10-19T23:40:25.556Z,0.88
2022-10-19T23:43:08.619Z,0.90
2022-10-19T23:45:51.271Z,0.77
2022-10-19T23:48:34.441Z,0.80
2022-10-19T23:51:17.511Z,0.70
2022-10-19T23:54:00.178Z,0.70
2022-10-19T23:56:44.217Z,0.80
2022-10-19T23:59:26.945Z,0.70
